Time;durP1;ratioP1;P1;durP2;ratioP2;P2;SDS_P1;SDS_P2;PMS_P1;PMS_P2;Temp;Humidity;BMP_temperature;BMP_pressure;BME280_temperature;BME280_humidity;BME280_pressure;Samples;Min_cycle;Max_cycle;Signal;HPM_P1;HPM_P2
2023/10/13 00:00:48;;;;;;;39.55;15.50;;;14.70;99.90;;;;;;5047763;28;20060;-70
2023/10/13 00:03:21;;;;;;;29.70;13.30;;;14.70;99.90;;;;;;5050752;28;20056;-70
2023/10/13 00:05:52;;;;;;;33.47;15.63;;;14.70;99.90;;;;;;5049263;28;20147;-70
2023/10/13 00:08:21;;;;;;;34.70;15.60;;;14.70;99.90;;;;;;5043510;28;20548;-71
2023/10/13 00:10:47;;;;;;;28.63;14.18;;;14.80;99.90;;;;;;5053865;28;20036;-70
2023/10/13 00:13:15;;;;;;;28.88;14.15;;;14.90;99.90;;;;;;5055007;28;20159;-70
2023/10/13 00:16:21;;;;;;;28.42;14.10;;;14.90;99.90;;;;;;5052218;28;20135;-70
2023/10/13 00:18:41;;;;;;;28.30;13.20;;;14.90;99.90;;;;;;5052623;28;20127;-70
2023/10/13 00:21:13;;;;;;;30.88;14.00;;;14.90;99.90;;;;;;5056109;28;20045;-70
2023/10/13 00:23:53;;;;;;;29.98;12.57;;;14.90;99.90;;;;;;5054493;28;20398;-70
2023/10/13 00:26:24;;;;;;;31.63;14.00;;;15.00;99.90;;;;;;5055132;28;20036;-70
2023/10/13 00:29:18;;;;;;;26.95;12.93;;;15.00;99.90;;;;;;5054098;28;20037;-70
2023/10/13 00:31:48;;;;;;;28.38;13.68;;;15.10;99.90;;;;;;5051855;28;20127;-70
2023/10/13 00:34:27;;;;;;;29.52;13.02;;;15.10;99.90;;;;;;5045784;28;20041;-70
2023/10/13 00:39:40;;;;;;;26.35;12.48;;;15.20;99.90;;;;;;5055750;28;20040;-68
2023/10/13 00:42:17;;;;;;;24.48;12.13;;;15.20;99.90;;;;;;5053878;28;20441;-68
2023/10/13 00:44:49;;;;;;;25.13;11.30;;;15.30;99.90;;;;;;5053343;28;20063;-71
2023/10/13 00:50:11;;;;;;;;;;;15.30;99.90;;;;;;5052867;28;20044;-68
2023/10/13 00:52:41;;;;;;;21.80;11.25;;;15.40;99.90;;;;;;5048397;28;19925;-68
2023/10/13 00:55:09;;;;;;;25.90;11.27;;;15.40;99.90;;;;;;5050973;28;20036;-69
2023/10/13 00:57:36;;;;;;;23.50;10.82;;;15.40;99.90;;;;;;5055581;28;20046;-69
2023/10/13 01:00:12;;;;;;;22.02;10.70;;;15.50;99.90;;;;;;5055827;28;20458;-69
2023/10/13 01:02:40;;;;;;;22.42;10.13;;;15.50;99.90;;;;;;5046658;28;20067;-69
2023/10/13 01:05:14;;;;;;;20.20;10.48;;;15.50;99.90;;;;;;5055451;28;20130;-69
2023/10/13 01:07:42;;;;;;;24.52;10.05;;;15.60;99.90;;;;;;5052651;28;20639;-69
2023/10/13 01:10:15;;;;;;;21.27;8.70;;;15.60;99.90;;;;;;5051853;28;20029;-69
2023/10/13 01:12:45;;;;;;;20.95;9.80;;;15.60;99.90;;;;;;5055144;28;20382;-69
2023/10/13 01:15:15;;;;;;;21.33;8.90;;;15.70;99.90;;;;;;5053450;28;20113;-69
2023/10/13 01:17:44;;;;;;;19.08;8.98;;;15.70;99.90;;;;;;5054247;28;21070;-69
2023/10/13 01:20:12;;;;;;;18.40;9.20;;;15.80;99.90;;;;;;5056275;28;20049;-69
2023/10/13 01:22:41;;;;;;;14.90;7.20;;;15.80;99.90;;;;;;5055430;28;20514;-69
2023/10/13 01:25:12;;;;;;;17.70;7.72;;;15.80;99.90;;;;;;5058882;28;20029;-69
2023/10/13 01:27:41;;;;;;;16.05;8.13;;;15.90;99.90;;;;;;5028285;28;20432;-69
2023/10/13 01:30:10;;;;;;;15.38;7.40;;;15.80;99.90;;;;;;5050337;28;20119;-69
2023/10/13 01:32:45;;;;;;;14.90;7.45;;;15.90;99.90;;;;;;5046623;28;20105;-69
2023/10/13 01:35:10;;;;;;;13.43;6.80;;;16.00;99.90;;;;;;5045847;28;20536;-69
2023/10/13 01:37:36;;;;;;;12.93;6.65;;;16.00;99.90;;;;;;5053012;28;20290;-69
2023/10/13 01:40:02;;;;;;;15.82;6.65;;;16.00;99.90;;;;;;5052773;28;20473;-69
2023/10/13 01:42:28;;;;;;;12.43;6.80;;;16.10;99.90;;;;;;5058301;28;20059;-69
2023/10/13 01:45:05;;;;;;;15.98;6.43;;;16.10;99.90;;;;;;5054849;28;20041;-69
2023/10/13 01:47:34;;;;;;;11.70;6.75;;;16.00;99.90;;;;;;5048623;28;20409;-69
2023/10/13 01:50:13;;;;;;;16.92;7.03;;;16.10;99.90;;;;;;5056770;28;20048;-69
2023/10/13 01:52:38;;;;;;;11.43;5.82;;;16.10;99.90;;;;;;5051810;28;20081;-69
2023/10/13 01:55:07;;;;;;;14.38;6.65;;;16.10;99.90;;;;;;5046146;28;20537;-70
2023/10/13 01:57:32;;;;;;;14.13;6.20;;;16.20;99.90;;;;;;5056471;28;20056;-70
2023/10/13 02:00:06;;;;;;;11.60;7.00;;;16.10;99.90;;;;;;5057741;28;20040;-69
2023/10/13 02:02:34;;;;;;;12.85;6.90;;;16.20;99.90;;;;;;5048327;28;20044;-69
2023/10/13 02:05:02;;;;;;;12.05;6.47;;;16.20;99.90;;;;;;5039054;28;20185;-70
2023/10/13 02:07:30;;;;;;;14.85;7.55;;;16.20;99.90;;;;;;5054834;28;20358;-69
2023/10/13 02:09:58;;;;;;;15.07;7.75;;;16.20;99.90;;;;;;5048741;28;20044;-69
2023/10/13 02:12:35;;;;;;;19.20;7.35;;;16.20;99.90;;;;;;5051560;28;20447;-69
2023/10/13 02:15:01;;;;;;;15.35;7.15;;;16.20;99.90;;;;;;5048046;28;20132;-69
2023/10/13 02:17:29;;;;;;;15.32;8.07;;;16.20;99.90;;;;;;5051411;28;20119;-69
2023/10/13 02:19:54;;;;;;;13.88;7.18;;;16.20;99.90;;;;;;5047038;28;20310;-68
2023/10/13 02:22:29;;;;;;;15.52;7.65;;;16.30;99.90;;;;;;5056177;28;20040;-71
2023/10/13 02:25:01;;;;;;;16.85;7.80;;;16.20;99.90;;;;;;5049066;28;20082;-68
2023/10/13 02:27:27;;;;;;;18.38;7.75;;;16.20;99.90;;;;;;5046042;28;20425;-69
2023/10/13 02:29:58;;;;;;;13.88;7.40;;;16.30;99.90;;;;;;5052995;28;20083;-67
2023/10/13 02:32:29;;;;;;;17.60;7.75;;;16.30;99.90;;;;;;5048972;28;20045;-67
2023/10/13 02:34:57;;;;;;;16.95;7.60;;;16.30;99.90;;;;;;5028708;28;20424;-68
2023/10/13 02:37:27;;;;;;;13.73;7.15;;;16.30;99.90;;;;;;5044600;28;20045;-68
2023/10/13 02:39:53;;;;;;;16.85;7.93;;;16.30;99.90;;;;;;5044006;28;20080;-67
2023/10/13 02:42:25;;;;;;;12.88;7.68;;;16.30;99.90;;;;;;5045059;28;20448;-68
2023/10/13 02:44:52;;;;;;;13.65;7.35;;;16.30;99.90;;;;;;5045665;28;20509;-69
2023/10/13 02:47:23;;;;;;;17.33;8.60;;;16.30;99.90;;;;;;5047858;28;20062;-68
2023/10/13 02:49:49;;;;;;;19.02;8.63;;;16.30;99.90;;;;;;5032991;28;20127;-68
2023/10/13 02:52:15;;;;;;;16.95;9.13;;;16.30;99.90;;;;;;5055779;28;20124;-68
2023/10/13 02:54:52;;;;;;;13.93;8.38;;;16.30;99.90;;;;;;5051071;28;20053;-67
2023/10/13 02:57:18;;;;;;;17.83;8.48;;;16.30;99.90;;;;;;5049014;28;20045;-67
2023/10/13 02:59:47;;;;;;;17.77;9.40;;;16.40;99.90;;;;;;5047466;28;20037;-67
2023/10/13 03:02:17;;;;;;;16.90;9.50;;;16.40;99.90;;;;;;5032887;28;20045;-67
2023/10/13 03:05:02;;;;;;;18.70;9.68;;;16.40;99.90;;;;;;5043872;28;20037;-67
2023/10/13 03:07:29;;;;;;;21.35;9.65;;;16.40;99.90;;;;;;5051001;28;20041;-68
2023/10/13 03:09:59;;;;;;;;;;;16.40;99.90;;;;;;5042805;28;20370;-67
2023/10/13 03:12:26;;;;;;;18.02;8.95;;;16.40;99.90;;;;;;5036811;28;19956;-67
2023/10/13 03:14:56;;;;;;;20.95;10.27;;;16.40;99.90;;;;;;5055359;28;20072;-67
2023/10/13 03:17:33;;;;;;;21.50;9.93;;;16.30;99.90;;;;;;5073887;28;20111;-68
2023/10/13 03:19:59;;;;;;;21.02;9.05;;;16.30;99.90;;;;;;5047334;28;20110;-71
2023/10/13 03:22:32;;;;;;;16.83;8.85;;;16.40;99.90;;;;;;5060905;28;20056;-69
2023/10/13 03:25:05;;;;;;;16.38;8.95;;;16.40;99.90;;;;;;5056466;28;20110;-69
2023/10/13 03:30:15;;;;;;;15.75;7.85;;;16.40;99.90;;;;;;5060123;28;20503;-69
2023/10/13 03:32:53;;;;;;;;;;;16.40;99.90;;;;;;5035191;28;20127;-69
2023/10/13 03:35:27;;;;;;;13.52;7.40;;;16.30;99.90;;;;;;5045234;28;20328;-69
2023/10/13 03:37:54;;;;;;;12.52;7.38;;;16.40;99.90;;;;;;5050026;28;20040;-69
2023/10/13 03:43:04;;;;;;;11.43;6.53;;;16.40;99.90;;;;;;5050516;28;20052;-69
2023/10/13 03:45:38;;;;;;;12.70;5.95;;;16.30;99.90;;;;;;5053137;28;20078;-69
2023/10/13 03:48:11;;;;;;;11.82;5.55;;;16.30;99.90;;;;;;5050477;28;20097;-69
2023/10/13 03:50:47;;;;;;;9.73;5.95;;;16.40;99.90;;;;;;5053668;28;20107;-69
2023/10/13 03:53:13;;;;;;;7.78;5.28;;;16.30;99.90;;;;;;5054107;28;20044;-69
2023/10/13 03:55:40;;;;;;;9.98;5.90;;;16.40;99.90;;;;;;5054775;28;20068;-69
2023/10/13 03:58:06;;;;;;;11.30;6.35;;;16.30;99.90;;;;;;5055963;28;20097;-69
2023/10/13 04:00:32;;;;;;;9.05;6.20;;;16.30;99.90;;;;;;5051068;28;20045;-69
2023/10/13 04:03:15;;;;;;;10.90;6.53;;;16.30;99.90;;;;;;5061041;28;20055;-70
2023/10/13 04:05:44;;;;;;;11.18;6.75;;;16.40;99.90;;;;;;5040618;28;20456;-70
2023/10/13 04:14:03;;;;;;;11.93;7.30;;;16.40;99.90;;;;;;5049370;28;20098;-70
2023/10/13 04:21:42;;;;;;;12.82;7.05;;;16.40;99.90;;;;;;5051044;28;20055;-70
2023/10/13 04:32:38;;;;;;;13.30;7.20;;;16.30;99.90;;;;;;5050037;28;20557;-70
2023/10/13 04:35:18;;;;;;;14.27;7.65;;;16.30;99.90;;;;;;5040985;28;20040;-70
2023/10/13 04:37:58;;;;;;;15.40;7.93;;;16.40;99.90;;;;;;5036513;28;20128;-70
2023/10/13 04:40:28;;;;;;;12.90;7.28;;;16.40;99.90;;;;;;5049407;28;20119;-70
2023/10/13 04:42:56;;;;;;;15.85;8.38;;;16.40;99.90;;;;;;5052008;28;20072;-70
2023/10/13 04:48:17;;;;;;;13.30;7.40;;;16.40;99.90;;;;;;5055662;28;20050;-70
2023/10/13 04:50:50;;;;;;;13.20;6.75;;;16.30;99.90;;;;;;5044012;28;20048;-70
2023/10/13 04:53:33;;;;;;;13.10;7.28;;;16.30;99.90;;;;;;5051149;28;20131;-70
2023/10/13 05:04:21;;;;;;;12.90;6.53;;;16.40;99.90;;;;;;5049875;28;20040;-70
2023/10/13 06:28:43;;;;;;;8.20;2.80;;;16.10;99.90;;;;;;5048411;28;20075;-71
2023/10/13 06:31:28;;;;;;;6.18;2.42;;;16.10;99.90;;;;;;5053012;28;20044;-71
2023/10/13 06:33:55;;;;;;;4.55;2.63;;;16.10;99.90;;;;;;5045997;28;20037;-71
2023/10/13 06:36:21;;;;;;;5.88;2.95;;;16.10;99.90;;;;;;5049806;28;20041;-71
2023/10/13 06:39:34;;;;;;;4.65;2.53;;;16.20;99.90;;;;;;5060455;28;20060;-71
2023/10/13 06:41:43;;;;;;;5.13;2.85;;;16.10;99.90;;;;;;5056333;28;20045;-71
2023/10/13 06:44:15;;;;;;;8.18;3.20;;;16.10;99.90;;;;;;5038288;28;20043;-71
2023/10/13 06:46:41;;;;;;;7.95;3.10;;;16.20;99.90;;;;;;5053719;28;20049;-71
2023/10/13 06:49:09;;;;;;;5.95;2.55;;;16.20;99.90;;;;;;5057382;28;20458;-72
2023/10/13 06:51:40;;;;;;;10.20;2.70;;;16.30;99.90;;;;;;5054542;28;20153;-71
2023/10/13 06:54:11;;;;;;;6.45;2.42;;;16.30;99.90;;;;;;5053287;28;20460;-72
2023/10/13 06:56:39;;;;;;;6.85;2.65;;;16.30;99.90;;;;;;5054262;28;20044;-71
2023/10/13 06:59:06;;;;;;;5.95;2.90;;;16.40;99.90;;;;;;5052084;28;20044;-72
2023/10/13 07:01:42;;;;;;;7.00;3.22;;;16.30;99.90;;;;;;5057595;28;20119;-71
2023/10/13 07:04:15;;;;;;;8.57;2.78;;;16.30;99.90;;;;;;5049528;28;20144;-71
2023/10/13 07:06:47;;;;;;;9.25;2.80;;;16.30;99.90;;;;;;5053926;28;20040;-69
2023/10/13 07:12:22;;;;;;;9.23;2.60;;;16.40;99.90;;;;;;5033146;28;20128;-70
2023/10/13 07:14:51;;;;;;;9.05;2.85;;;16.40;99.90;;;;;;5035077;28;20044;-73
2023/10/13 07:17:23;;;;;;;8.50;2.88;;;16.30;99.90;;;;;;5058819;28;20047;-71
2023/10/13 07:20:13;;;;;;;8.13;2.72;;;16.40;99.90;;;;;;5059163;28;20045;-69
2023/10/13 07:22:39;;;;;;;9.07;2.75;;;16.30;99.90;;;;;;5058267;28;20206;-69
2023/10/13 07:25:09;;;;;;;13.75;2.80;;;16.40;99.90;;;;;;5058818;28;20048;-69
2023/10/13 07:27:35;;;;;;;9.23;2.78;;;16.40;99.90;;;;;;5056825;28;20289;-69
2023/10/13 07:30:14;;;;;;;11.02;2.95;;;16.30;99.90;;;;;;5060762;28;20044;-69
2023/10/13 07:32:46;;;;;;;15.23;2.92;;;16.40;99.90;;;;;;5052388;28;20077;-69
2023/10/13 07:35:17;;;;;;;12.40;3.22;;;16.30;99.90;;;;;;5061464;28;20392;-68
2023/10/13 07:37:44;;;;;;;7.07;2.67;;;16.30;99.90;;;;;;5065991;28;20501;-69
2023/10/13 07:42:48;;;;;;;9.52;3.35;;;16.30;99.90;;;;;;5061779;28;20079;-68
2023/10/13 07:45:17;;;;;;;7.95;2.95;;;16.30;99.90;;;;;;5036854;28;20076;-69
2023/10/13 07:47:43;;;;;;;12.05;3.28;;;16.30;99.90;;;;;;5055567;28;20141;-68
2023/10/13 07:50:09;;;;;;;10.65;3.38;;;16.30;99.90;;;;;;5058215;28;20202;-68
2023/10/13 07:52:40;;;;;;;13.35;3.28;;;16.30;99.90;;;;;;5065458;28;20040;-70
2023/10/13 07:55:13;;;;;;;12.52;3.22;;;16.30;99.90;;;;;;5058124;28;20044;-68
2023/10/13 07:57:56;;;;;;;13.63;3.28;;;16.30;99.90;;;;;;5063697;28;20044;-68
2023/10/13 08:00:29;;;;;;;12.90;3.20;;;16.30;99.90;;;;;;5058613;28;20267;-69
2023/10/13 08:03:09;;;;;;;12.70;3.15;;;16.20;99.90;;;;;;5053111;28;20045;-69
2023/10/13 08:08:18;;;;;;;10.02;4.05;;;16.30;99.90;;;;;;5066031;28;20044;-69
2023/10/13 08:10:45;;;;;;;10.45;3.20;;;16.30;99.90;;;;;;5053909;28;20032;-69
2023/10/13 08:13:12;;;;;;;;;;;16.30;99.90;;;;;;5053971;28;20493;-68
2023/10/13 08:15:47;;;;;;;8.00;2.90;;;16.40;99.90;;;;;;5059713;28;20366;-69
2023/10/13 08:18:30;;;;;;;14.20;3.30;;;16.30;99.90;;;;;;5058484;28;20072;-69
2023/10/13 08:21:02;;;;;;;13.32;3.47;;;16.30;99.90;;;;;;5055559;28;20051;-69
2023/10/13 08:24:06;;;;;;;11.90;3.40;;;16.40;99.90;;;;;;5062719;28;20043;-69
2023/10/13 08:32:04;;;;;;;11.82;4.13;;;16.50;99.90;;;;;;5055726;28;20532;-69
2023/10/13 08:45:20;;;;;;;;;;;16.60;99.90;;;;;;5052703;28;20064;-69
2023/10/13 08:47:59;;;;;;;9.93;3.10;;;16.50;99.90;;;;;;5045328;28;19932;-69
2023/10/13 08:53:26;;;;;;;8.32;3.83;;;16.60;99.90;;;;;;5052614;28;20076;-69
2023/10/13 09:07:03;;;;;;;10.40;4.57;;;16.90;99.90;;;;;;5060330;28;20111;-69
2023/10/13 09:12:19;;;;;;;8.80;4.10;;;17.00;99.90;;;;;;5062385;28;20047;-70
2023/10/13 09:14:58;;;;;;;8.88;4.50;;;17.10;99.90;;;;;;5064423;28;20044;-70
2023/10/13 09:17:34;;;;;;;11.85;5.05;;;17.10;99.90;;;;;;5036126;28;20044;-70
2023/10/13 09:25:38;;;;;;;14.13;5.32;;;17.30;99.90;;;;;;5058256;28;20040;-69
2023/10/13 09:28:21;;;;;;;10.27;4.97;;;17.30;99.90;;;;;;5058455;28;20044;-70
2023/10/13 09:30:52;;;;;;;12.10;5.30;;;17.40;99.90;;;;;;5054713;28;20128;-70
2023/10/13 09:33:45;;;;;;;8.90;4.50;;;17.50;99.90;;;;;;5059369;28;20112;-70
2023/10/13 09:36:12;;;;;;;8.45;4.30;;;17.50;99.90;;;;;;5059748;28;20287;-70
2023/10/13 09:38:41;;;;;;;10.93;4.25;;;17.50;99.90;;;;;;5058206;28;20045;-70
2023/10/13 09:41:25;;;;;;;12.10;4.15;;;17.60;99.90;;;;;;5061241;28;20063;-70
2023/10/13 09:43:52;;;;;;;14.85;4.40;;;17.70;99.90;;;;;;5060775;28;20055;-70
2023/10/13 09:46:26;;;;;;;13.82;4.18;;;17.70;99.90;;;;;;5057918;28;20101;-70
2023/10/13 09:49:08;;;;;;;13.65;5.00;;;17.70;99.90;;;;;;5060189;28;20080;-70
2023/10/13 09:51:34;;;;;;;12.10;4.07;;;17.90;99.90;;;;;;5060749;28;20044;-70
2023/10/13 09:54:41;;;;;;;10.52;4.25;;;18.00;99.90;;;;;;5050780;28;20163;-70
2023/10/13 09:57:16;;;;;;;11.48;4.20;;;18.00;99.90;;;;;;5059765;28;20101;-73
2023/10/13 09:59:56;;;;;;;8.73;3.88;;;18.00;99.90;;;;;;5061924;28;20037;-71
2023/10/13 10:02:25;;;;;;;12.63;4.03;;;18.10;99.90;;;;;;5050464;28;20045;-73
2023/10/13 10:07:55;;;;;;;11.77;4.50;;;18.20;99.90;;;;;;5048410;28;20079;-71
2023/10/13 10:10:25;;;;;;;9.65;3.42;;;18.20;99.90;;;;;;5050873;28;20048;-72
2023/10/13 10:13:16;;;;;;;14.38;4.03;;;18.30;99.90;;;;;;5050085;28;20041;-70
2023/10/13 10:15:47;;;;;;;9.32;4.00;;;18.20;99.90;;;;;;5052718;28;20094;-70
2023/10/13 10:18:25;;;;;;;15.60;6.00;;;18.20;99.90;;;;;;5051067;28;20055;-70
2023/10/13 10:20:52;;;;;;;13.90;4.28;;;18.30;99.90;;;;;;5057198;28;20107;-73
2023/10/13 10:23:28;;;;;;;7.28;3.63;;;18.40;99.90;;;;;;5056910;28;20049;-75
2023/10/13 10:26:08;;;;;;;9.65;4.03;;;18.40;99.90;;;;;;5054827;28;20067;-70
2023/10/13 10:28:42;;;;;;;11.88;3.60;;;18.50;99.90;;;;;;5047983;28;20604;-70
2023/10/13 10:31:12;;;;;;;9.70;3.72;;;18.50;99.90;;;;;;5061902;28;20408;-74
2023/10/13 10:33:41;;;;;;;15.23;4.70;;;18.60;99.90;;;;;;5061114;28;20041;-69
2023/10/13 10:36:16;;;;;;;8.93;3.97;;;18.60;99.90;;;;;;5061944;28;20124;-69
2023/10/13 10:39:01;;;;;;;12.65;4.53;;;18.60;99.90;;;;;;5063332;28;20079;-70
2023/10/13 10:44:16;;;;;;;11.73;3.47;;;18.70;99.90;;;;;;5050486;28;20037;-70
2023/10/13 10:46:52;;;;;;;11.27;3.95;;;18.60;99.90;;;;;;5054805;28;20044;-69
2023/10/13 10:49:27;;;;;;;10.98;3.80;;;18.70;99.90;;;;;;5052614;28;20048;-69
2023/10/13 10:51:59;;;;;;;14.30;4.63;;;18.80;99.90;;;;;;5063727;28;20074;-69
2023/10/13 10:54:30;;;;;;;11.75;3.75;;;18.90;99.90;;;;;;5054493;28;20578;-70
2023/10/13 10:57:10;;;;;;;10.73;4.47;;;18.90;99.90;;;;;;5052630;28;20420;-70
2023/10/13 10:59:37;;;;;;;11.20;4.47;;;18.90;99.90;;;;;;5055046;28;20542;-69
2023/10/13 11:02:03;;;;;;;10.23;4.03;;;18.90;99.90;;;;;;5049098;28;20102;-70
2023/10/13 11:04:41;;;;;;;;;;;19.00;99.90;;;;;;5056041;28;20048;-69
2023/10/13 11:07:08;;;;;;;10.18;4.03;;;19.00;99.90;;;;;;5061018;28;19966;-70
2023/10/13 11:12:16;;;;;;;13.05;3.90;;;19.00;99.90;;;;;;5047988;28;20409;-70
2023/10/13 11:14:47;;;;;;;12.57;4.00;;;19.00;99.90;;;;;;5054431;28;20566;-70
2023/10/13 11:17:26;;;;;;;16.45;4.20;;;19.00;99.90;;;;;;5036503;28;20114;-69
2023/10/13 11:19:52;;;;;;;12.35;4.30;;;19.00;99.90;;;;;;5036590;28;20040;-69
2023/10/13 11:22:41;;;;;;;11.23;4.30;;;19.00;99.90;;;;;;5058264;28;20040;-70
2023/10/13 11:25:10;;;;;;;17.80;4.95;;;19.00;99.90;;;;;;5039812;28;20041;-70
2023/10/13 11:27:44;;;;;;;8.38;3.58;;;19.10;99.90;;;;;;5056119;28;20455;-70
2023/10/13 11:30:14;;;;;;;12.38;4.30;;;19.10;99.90;;;;;;5060100;28;20045;-70
2023/10/13 11:32:43;;;;;;;12.88;3.95;;;19.10;99.90;;;;;;5053403;28;20060;-70
2023/10/13 11:35:23;;;;;;;11.60;4.97;;;19.10;99.90;;;;;;5057931;28;20120;-70
2023/10/13 11:43:24;;;;;;;17.98;4.03;;;18.90;99.90;;;;;;5067633;28;20056;-70
2023/10/13 11:46:12;;;;;;;13.32;3.92;;;18.90;99.90;;;;;;5052636;28;20397;-72
2023/10/13 11:48:41;;;;;;;11.52;4.03;;;18.80;99.90;;;;;;5048204;28;20045;-71
2023/10/13 11:51:17;;;;;;;17.17;4.22;;;18.80;99.90;;;;;;5053218;28;20032;-71
2023/10/13 11:53:44;;;;;;;12.60;4.43;;;18.70;99.90;;;;;;5057522;28;20400;-71
2023/10/13 11:56:10;;;;;;;11.60;4.40;;;18.70;99.90;;;;;;5050980;28;20044;-70
2023/10/13 11:58:37;;;;;;;10.27;3.38;;;18.70;99.90;;;;;;5055056;28;20412;-70
2023/10/13 12:06:32;;;;;;;7.38;3.10;;;18.80;99.90;;;;;;5046349;28;20585;-70
2023/10/13 12:09:31;;;;;;;9.15;3.63;;;18.90;99.90;;;;;;5056799;28;20044;-70
2023/10/13 12:11:46;;;;;;;13.43;3.73;;;18.80;99.90;;;;;;5056575;28;20079;-70
2023/10/13 12:14:37;;;;;;;9.13;3.72;;;18.90;99.90;;;;;;5051700;28;20094;-70
2023/10/13 12:17:04;;;;;;;11.45;4.00;;;18.80;99.90;;;;;;5046863;28;20098;-70
2023/10/13 12:19:30;;;;;;;12.10;3.83;;;18.90;99.90;;;;;;5059783;28;20052;-70
2023/10/13 12:21:57;;;;;;;;;;;18.90;99.90;;;;;;5061137;28;20040;-70
2023/10/13 12:24:53;;;;;;;12.45;4.32;;;18.90;99.90;;;;;;5053563;28;20014;-70
2023/10/13 12:27:19;;;;;;;11.27;3.72;;;18.90;99.90;;;;;;5062942;28;20051;-70
2023/10/13 12:29:56;;;;;;;9.80;4.28;;;18.80;99.90;;;;;;5051237;28;20048;-70
2023/10/13 12:32:24;;;;;;;14.23;4.97;;;18.80;99.90;;;;;;5045731;28;20041;-70
2023/10/13 12:51:19;;;;;;;11.27;5.65;;;18.60;99.90;;;;;;5046582;28;20041;-70
2023/10/13 12:53:52;;;;;;;14.85;4.88;;;18.50;99.90;;;;;;5047426;28;20844;-70
2023/10/13 12:56:25;;;;;;;14.50;4.50;;;18.50;99.90;;;;;;5055131;28;20119;-70
2023/10/13 12:58:51;;;;;;;12.68;4.53;;;18.40;99.90;;;;;;5057959;28;20275;-70
2023/10/13 13:01:20;;;;;;;;;;;18.50;99.90;;;;;;5035041;28;20051;-71
2023/10/13 13:03:47;;;;;;;16.55;4.57;;;18.40;99.90;;;;;;5055434;28;20365;-71
2023/10/13 13:06:26;;;;;;;13.50;4.63;;;18.30;99.90;;;;;;5047394;28;20435;-70
2023/10/13 13:09:00;;;;;;;20.15;5.43;;;18.20;99.90;;;;;;5037664;28;20387;-70
2023/10/13 13:11:28;;;;;;;10.43;4.45;;;18.20;99.90;;;;;;5053131;28;20664;-77
2023/10/13 13:13:54;;;;;;;12.32;4.75;;;18.10;99.90;;;;;;5037876;28;20045;-71
2023/10/13 13:16:23;;;;;;;;;;;18.10;99.90;;;;;;5048790;28;20171;-71
2023/10/13 13:18:54;;;;;;;11.15;4.63;;;18.10;99.90;;;;;;5058027;28;19916;-69
2023/10/13 13:21:22;;;;;;;18.17;5.05;;;18.00;99.90;;;;;;5046384;28;20117;-71
2023/10/13 13:23:49;;;;;;;19.48;5.20;;;18.00;99.90;;;;;;5053122;28;20048;-71
2023/10/13 13:26:15;;;;;;;14.77;5.45;;;18.00;99.90;;;;;;5053758;28;20067;-70
2023/10/13 13:28:50;;;;;;;14.10;5.50;;;17.90;99.90;;;;;;5053242;28;20037;-70
2023/10/13 13:31:16;;;;;;;12.05;5.05;;;17.90;99.90;;;;;;5053124;28;20033;-70
2023/10/13 13:33:44;;;;;;;;;;;18.00;99.90;;;;;;5035679;28;20032;-70
2023/10/13 13:36:15;;;;;;;15.00;5.55;;;17.90;99.90;;;;;;5051282;28;19943;-70
2023/10/13 13:38:42;;;;;;;12.85;4.70;;;17.90;99.90;;;;;;5050819;28;20532;-70
2023/10/13 13:41:16;;;;;;;;;;;17.90;99.90;;;;;;5057665;28;20170;-70
2023/10/13 13:44:15;;;;;;;14.55;5.00;;;17.90;99.90;;;;;;5051552;28;19923;-70
2023/10/13 13:46:41;;;;;;;17.58;4.40;;;17.90;99.90;;;;;;5048453;28;20199;-69
2023/10/13 13:49:17;;;;;;;11.10;5.32;;;18.00;99.90;;;;;;5032444;28;20464;-69
2023/10/13 13:51:52;;;;;;;13.38;4.95;;;18.00;99.90;;;;;;5050451;28;20045;-72
2023/10/13 13:54:19;;;;;;;17.00;4.68;;;18.00;99.90;;;;;;5036555;28;20049;-73
2023/10/13 13:56:44;;;;;;;14.85;4.53;;;18.00;99.90;;;;;;5041648;28;20040;-72
2023/10/13 13:59:15;;;;;;;14.20;5.18;;;18.10;99.90;;;;;;5053683;28;20053;-73
2023/10/13 14:01:44;;;;;;;13.60;5.00;;;18.10;99.90;;;;;;5059354;28;20406;-72
2023/10/13 14:04:10;;;;;;;19.63;5.25;;;18.10;99.90;;;;;;5056522;28;20051;-72
2023/10/13 14:06:37;;;;;;;16.90;5.55;;;18.10;99.90;;;;;;5055285;28;20098;-72
2023/10/13 14:09:14;;;;;;;17.60;5.03;;;18.10;99.90;;;;;;5047195;28;20425;-72
2023/10/13 14:14:13;;;;;;;15.65;5.22;;;18.20;99.90;;;;;;5053210;28;20036;-71
2023/10/13 14:16:47;;;;;;;9.70;4.20;;;18.20;99.90;;;;;;5051182;28;20069;-72
2023/10/13 14:19:47;;;;;;;16.25;4.78;;;18.20;99.90;;;;;;5055892;28;20071;-71
2023/10/13 14:22:06;;;;;;;16.88;4.70;;;18.20;99.90;;;;;;5054953;28;20049;-71
2023/10/13 14:24:33;;;;;;;11.38;4.55;;;18.20;99.90;;;;;;5059700;28;20041;-71
2023/10/13 14:27:08;;;;;;;12.77;4.03;;;18.20;99.90;;;;;;5059757;28;20089;-72
2023/10/13 14:29:39;;;;;;;13.00;5.00;;;18.30;99.90;;;;;;5055446;28;20041;-72
2023/10/13 14:32:13;;;;;;;16.05;4.55;;;18.40;99.90;;;;;;5054107;28;20314;-72
2023/10/13 14:34:40;;;;;;;14.10;4.78;;;18.40;99.90;;;;;;5051102;28;20072;-71
2023/10/13 14:37:06;;;;;;;10.60;4.47;;;18.40;99.90;;;;;;5052566;28;20543;-71
2023/10/13 14:39:34;;;;;;;16.25;4.90;;;18.50;99.90;;;;;;5053970;28;20060;-72
2023/10/13 14:42:02;;;;;;;11.85;3.75;;;18.50;99.90;;;;;;5055235;28;20103;-71
2023/10/13 14:44:28;;;;;;;14.13;5.10;;;18.50;99.90;;;;;;5037914;28;20124;-71
2023/10/13 14:46:56;;;;;;;10.70;4.78;;;18.50;99.90;;;;;;5049850;28;20513;-72
2023/10/13 14:49:22;;;;;;;10.93;5.05;;;18.50;99.90;;;;;;5057932;28;20624;-72
2023/10/13 14:51:49;;;;;;;10.52;4.13;;;18.50;99.90;;;;;;5049273;28;20044;-71
2023/10/13 14:54:15;;;;;;;11.60;4.07;;;18.50;99.90;;;;;;5055175;28;20040;-71
2023/10/13 14:56:43;;;;;;;;;;;18.50;99.90;;;;;;5061387;28;20040;-71
2023/10/13 14:59:16;;;;;;;13.23;4.93;;;18.50;99.90;;;;;;5054302;28;19916;-71
2023/10/13 15:01:43;;;;;;;15.40;4.90;;;18.50;99.90;;;;;;5051817;28;20047;-71
2023/10/13 15:04:08;;;;;;;;;;;18.60;99.90;;;;;;5060816;28;20093;-71
2023/10/13 15:06:34;;;;;;;12.95;4.05;;;18.50;99.90;;;;;;5059302;28;19969;-71
2023/10/13 15:09:00;;;;;;;12.52;4.60;;;18.50;99.90;;;;;;5054849;28;20405;-71
2023/10/13 15:11:26;;;;;;;;;;;18.50;99.90;;;;;;5058826;28;20526;-72
2023/10/13 15:13:56;;;;;;;11.15;3.90;;;18.40;99.90;;;;;;5059983;28;19917;-71
2023/10/13 15:16:28;;;;;;;13.82;4.28;;;18.40;99.90;;;;;;5053811;28;20085;-71
2023/10/13 15:18:54;;;;;;;17.50;4.53;;;18.40;99.90;;;;;;5045184;28;20051;-71
2023/10/13 15:21:22;;;;;;;13.38;4.53;;;18.40;99.90;;;;;;5063331;28;20037;-71
2023/10/13 15:23:51;;;;;;;10.85;4.20;;;18.40;99.90;;;;;;5056401;28;20040;-72
2023/10/13 15:26:21;;;;;;;11.40;4.03;;;18.40;99.90;;;;;;5051234;28;20047;-72
2023/10/13 15:28:53;;;;;;;16.23;4.07;;;18.50;99.90;;;;;;5059868;28;20174;-71
2023/10/13 15:34:12;;;;;;;12.77;3.88;;;18.50;99.90;;;;;;5048155;28;20045;-71
2023/10/13 15:36:43;;;;;;;11.68;3.70;;;18.40;99.90;;;;;;5055721;28;20074;-71
2023/10/13 15:39:15;;;;;;;10.05;3.75;;;18.40;99.90;;;;;;5058622;28;20074;-71
2023/10/13 15:41:41;;;;;;;13.98;4.32;;;18.40;99.90;;;;;;5053311;28;20152;-72
2023/10/13 15:44:11;;;;;;;;;;;18.40;99.90;;;;;;5052475;28;20040;-71
2023/10/13 15:46:37;;;;;;;13.75;3.65;;;18.40;99.90;;;;;;5052672;28;19982;-72
2023/10/13 15:49:05;;;;;;;15.20;4.05;;;18.40;99.90;;;;;;5050500;28;20045;-71
2023/10/13 15:51:38;;;;;;;14.45;3.97;;;18.40;99.90;;;;;;5059083;28;20036;-72
2023/10/13 15:54:04;;;;;;;15.70;3.63;;;18.40;99.90;;;;;;5062939;28;20091;-72
2023/10/13 15:56:33;;;;;;;13.80;4.13;;;18.40;99.90;;;;;;5060118;28;20386;-71
2023/10/13 15:59:02;;;;;;;11.43;3.75;;;18.40;99.90;;;;;;5062211;28;20051;-71
2023/10/13 16:01:28;;;;;;;14.40;4.38;;;18.30;99.90;;;;;;5057631;28;20955;-71
2023/10/13 16:03:54;;;;;;;12.50;3.92;;;18.30;99.90;;;;;;5062584;28;20036;-72
2023/10/13 16:06:25;;;;;;;12.57;3.83;;;18.30;99.90;;;;;;5058846;28;20048;-71
2023/10/13 16:08:51;;;;;;;12.23;4.70;;;18.30;99.90;;;;;;5051014;28;20049;-72
2023/10/13 16:11:18;;;;;;;11.52;5.18;;;18.20;99.90;;;;;;5053730;28;20044;-71
2023/10/13 16:13:44;;;;;;;;;;;18.30;99.90;;;;;;5057445;28;20048;-72
2023/10/13 16:16:22;;;;;;;12.50;3.72;;;18.20;99.90;;;;;;5057752;28;19927;-72
2023/10/13 16:18:49;;;;;;;13.93;4.00;;;18.20;99.90;;;;;;5055159;28;20489;-72
2023/10/13 16:21:15;;;;;;;9.18;3.75;;;18.20;99.90;;;;;;5051466;28;20115;-73
2023/10/13 16:23:41;;;;;;;12.05;3.95;;;18.20;99.90;;;;;;5060444;28;20085;-73
2023/10/13 16:26:09;;;;;;;10.10;3.13;;;18.10;99.90;;;;;;5053924;28;20076;-73
2023/10/13 16:28:35;;;;;;;9.85;3.60;;;18.10;99.90;;;;;;5058458;28;20306;-73
2023/10/13 16:31:02;;;;;;;9.60;3.20;;;18.10;99.90;;;;;;5058776;28;20040;-73
2023/10/13 16:33:28;;;;;;;7.13;3.03;;;18.00;99.90;;;;;;5056312;28;20048;-72
2023/10/13 16:35:56;;;;;;;;;;;18.10;99.90;;;;;;5048698;28;20045;-72